createdAt,value
2018-02-22T00:00:42.725Z,-0.10
2018-02-22T00:03:22.356Z,-0.10
2018-02-22T00:06:01.253Z,0.00
2018-02-22T00:08:42.286Z,-0.10
2018-02-22T00:11:17.064Z,-0.10
2018-02-22T00:13:59.977Z,-0.10
2018-02-22T00:16:38.524Z,-0.10
2018-02-22T00:19:17.227Z,-0.10
2018-02-22T00:21:57.906Z,-0.20
2018-02-22T00:24:40.351Z,-0.20
2018-02-22T00:27:20.602Z,-0.30
2018-02-22T00:29:59.649Z,-0.30
2018-02-22T00:32:37.548Z,-0.30
2018-02-22T00:35:17.807Z,-0.30
2018-02-22T00:37:56.633Z,-0.30
2018-02-22T00:40:32.212Z,-0.30
2018-02-22T00:43:09.362Z,-0.30
2018-02-22T00:45:48.357Z,-0.40
2018-02-22T00:48:28.238Z,-0.50
2018-02-22T00:51:04.478Z,-0.50
2018-02-22T00:53:37.890Z,-0.50
2018-02-22T00:56:13.334Z,-0.50
2018-02-22T00:58:52.436Z,-0.50
2018-02-22T01:01:30.912Z,-0.50
2018-02-22T01:04:08.924Z,-0.50
2018-02-22T01:06:48.358Z,-0.50
2018-02-22T01:09:27.166Z,-0.50
2018-02-22T01:12:07.325Z,-0.50
2018-02-22T01:14:46.674Z,-0.50
2018-02-22T01:17:26.024Z,-0.60
2018-02-22T01:20:04.972Z,-0.50
2018-02-22T01:22:44.508Z,-0.50
2018-02-22T01:25:23.021Z,-0.60
2018-02-22T01:28:01.231Z,-0.50
2018-02-22T01:30:41.953Z,-0.60
2018-02-22T01:33:21.568Z,-0.60
2018-02-22T01:36:01.869Z,-0.60
2018-02-22T01:38:42.539Z,-0.60
2018-02-22T01:41:24.739Z,-0.60
2018-02-22T01:44:08.241Z,-0.60
2018-02-22T01:46:49.373Z,-0.60
2018-02-22T01:49:29.112Z,-0.60
2018-02-22T01:52:07.399Z,-0.60
2018-02-22T01:54:40.936Z,-0.60
2018-02-22T01:57:20.471Z,-0.60
2018-02-22T01:59:59.275Z,-0.60
2018-02-22T02:02:34.390Z,-0.50
2018-02-22T02:05:13.497Z,-0.60
2018-02-22T02:07:54.948Z,-0.50
2018-02-22T02:10:34.376Z,-0.60
2018-02-22T02:13:13.656Z,-0.60
2018-02-22T02:15:52.483Z,-0.60
2018-02-22T02:18:33.222Z,-0.60
2018-02-22T02:21:10.782Z,-0.60
2018-02-22T02:23:48.022Z,-0.60
2018-02-22T02:26:27.258Z,-0.70
2018-02-22T02:29:05.275Z,-0.60
2018-02-22T02:31:45.916Z,-0.70
2018-02-22T02:34:25.181Z,-0.70
2018-02-22T02:37:03.271Z,-0.70
2018-02-22T02:39:43.251Z,-0.70
2018-02-22T02:42:21.633Z,-0.80
2018-02-22T02:44:57.615Z,-0.70
2018-02-22T02:47:36.382Z,-0.80
2018-02-22T02:50:15.429Z,-0.80
2018-02-22T02:52:58.616Z,-0.70
2018-02-22T02:55:39.066Z,-0.80
2018-02-22T02:58:18.123Z,-0.80
2018-02-22T03:00:57.812Z,-0.80
2018-02-22T03:03:37.029Z,-0.70
2018-02-22T03:06:15.918Z,-0.80
2018-02-22T03:08:53.681Z,-0.80
2018-02-22T03:11:31.465Z,-0.80
2018-02-22T03:14:11.244Z,-0.80
2018-02-22T03:16:49.628Z,-0.80
2018-02-22T03:19:29.498Z,-0.80
2018-02-22T03:22:08.512Z,-0.90
2018-02-22T03:24:48.218Z,-0.90
2018-02-22T03:27:27.026Z,-0.90
2018-02-22T03:30:05.585Z,-0.90
2018-02-22T03:32:38.204Z,-0.90
2018-02-22T03:35:16.712Z,-1.00
2018-02-22T03:37:54.202Z,-1.00
2018-02-22T03:40:32.091Z,-1.00
2018-02-22T03:43:11.522Z,-1.00
2018-02-22T03:45:44.713Z,-1.00
2018-02-22T03:48:24.867Z,-1.00
2018-02-22T03:50:59.003Z,-1.00
2018-02-22T03:53:37.378Z,-1.10
2018-02-22T03:56:19.420Z,-1.00
2018-02-22T03:58:58.321Z,-1.10
2018-02-22T04:01:39.728Z,-1.10
2018-02-22T04:04:17.916Z,-1.10
2018-02-22T04:06:56.024Z,-1.10
2018-02-22T04:09:37.697Z,-1.10
2018-02-22T04:12:17.295Z,-1.20
2018-02-22T04:14:55.612Z,-1.20
2018-02-22T04:17:36.515Z,-1.20
2018-02-22T04:20:14.468Z,-1.20
2018-02-22T04:22:54.934Z,-1.20
2018-02-22T04:25:34.120Z,-1.20
2018-02-22T04:28:12.994Z,-1.20
2018-02-22T04:30:51.994Z,-1.20
2018-02-22T04:33:31.454Z,-1.20
2018-02-22T04:36:10.770Z,-1.20
2018-02-22T04:38:49.881Z,-1.20
2018-02-22T04:41:27.237Z,-1.20
2018-02-22T04:44:06.133Z,-1.20
2018-02-22T04:46:46.485Z,-1.20
2018-02-22T04:49:25.593Z,-1.20
2018-02-22T04:52:04.724Z,-1.20
2018-02-22T04:54:44.061Z,-1.20
2018-02-22T04:57:21.147Z,-1.30
2018-02-22T04:59:54.670Z,-1.30
2018-02-22T05:02:27.283Z,-1.30
2018-02-22T05:05:06.857Z,-1.30
2018-02-22T05:07:46.789Z,-1.30
2018-02-22T05:10:20.735Z,-1.30
2018-02-22T05:12:59.022Z,-1.30
2018-02-22T05:15:37.625Z,-1.30
2018-02-22T05:18:14.826Z,-1.30
2018-02-22T05:20:53.719Z,-1.30
2018-02-22T05:23:30.887Z,-1.30
2018-02-22T05:26:10.185Z,-1.30
2018-02-22T05:28:47.104Z,-1.30
2018-02-22T05:31:28.744Z,-1.30
2018-02-22T05:34:11.036Z,-1.40
2018-02-22T05:36:51.890Z,-1.30
2018-02-22T05:39:31.717Z,-1.30
2018-02-22T05:42:10.979Z,-1.40
2018-02-22T05:44:48.310Z,-1.40
2018-02-22T05:47:28.695Z,-1.40
2018-02-22T05:50:08.923Z,-1.40
2018-02-22T05:52:46.816Z,-1.40
2018-02-22T05:55:23.618Z,-1.40
2018-02-22T05:58:00.999Z,-1.40
2018-02-22T06:00:38.116Z,-1.40
2018-02-22T06:03:16.589Z,-1.40
2018-02-22T06:05:56.874Z,-1.40
2018-02-22T06:08:29.888Z,-1.40
2018-02-22T06:11:06.974Z,-1.40
2018-02-22T06:13:40.594Z,-1.40
2018-02-22T06:16:20.040Z,-1.40
2018-02-22T06:18:55.239Z,-1.40
2018-02-22T06:21:29.381Z,-1.40
2018-02-22T06:24:08.715Z,-1.50
2018-02-22T06:26:48.231Z,-1.40
2018-02-22T06:29:27.128Z,-1.50
2018-02-22T06:32:06.988Z,-1.50
2018-02-22T06:34:40.725Z,-1.50
2018-02-22T06:37:15.869Z,-1.50
2018-02-22T06:39:53.535Z,-1.50
2018-02-22T06:42:31.979Z,-1.50
2018-02-22T06:45:11.481Z,-1.50
2018-02-22T06:47:48.839Z,-1.50
2018-02-22T06:50:27.963Z,-1.50
2018-02-22T06:53:06.524Z,-1.40
2018-02-22T06:55:46.599Z,-1.40
2018-02-22T06:58:19.596Z,-1.40
2018-02-22T07:00:57.603Z,-1.40
2018-02-22T07:03:36.523Z,-1.30
2018-02-22T07:06:09.097Z,-1.30
2018-02-22T07:08:47.827Z,-1.30
2018-02-22T07:11:21.056Z,-1.30
2018-02-22T07:14:00.158Z,-1.30
2018-02-22T07:16:38.975Z,-1.30
2018-02-22T07:19:15.935Z,-1.30
2018-02-22T07:21:56.050Z,-1.30
2018-02-22T07:24:35.248Z,-1.20
2018-02-22T07:27:13.563Z,-1.20
2018-02-22T07:29:52.624Z,-1.10
2018-02-22T07:32:35.038Z,-1.10
2018-02-22T07:35:16.137Z,-1.10
2018-02-22T07:37:54.556Z,-1.00
2018-02-22T07:40:34.551Z,-0.90
2018-02-22T07:43:12.970Z,-0.90
2018-02-22T07:45:47.571Z,-0.90
2018-02-22T07:48:28.282Z,-0.80
2018-02-22T07:51:06.767Z,-0.70
2018-02-22T07:53:47.669Z,-0.70
2018-02-22T07:56:23.026Z,-0.50
2018-02-22T07:59:01.300Z,-0.50
2018-02-22T08:01:39.682Z,-0.50
2018-02-22T08:04:22.310Z,-0.40
2018-02-22T08:07:02.643Z,-0.30
2018-02-22T08:09:43.517Z,-0.30
2018-02-22T08:12:20.902Z,-0.20
2018-02-22T08:15:03.964Z,-0.10
2018-02-22T08:17:44.824Z,-0.10
2018-02-22T08:20:20.714Z,0.10
2018-02-22T08:23:04.201Z,0.30
2018-02-22T08:25:44.364Z,0.30
2018-02-22T08:28:24.696Z,0.40
2018-02-22T08:31:03.060Z,0.70
2018-02-22T08:33:40.734Z,0.90
2018-02-22T08:36:23.617Z,1.10
2018-02-22T08:39:05.928Z,1.30
2018-02-22T08:41:49.016Z,1.60
2018-02-22T08:44:22.797Z,2.00
2018-02-22T08:46:58.665Z,2.00
2018-02-22T08:49:38.071Z,2.50
2018-02-22T08:52:15.696Z,2.40
2018-02-22T08:54:50.996Z,2.80
2018-02-22T08:57:32.674Z,3.40
2018-02-22T09:00:15.724Z,4.40
2018-02-22T09:02:53.190Z,5.30
2018-02-22T09:05:35.476Z,5.90
2018-02-22T09:08:17.942Z,6.60
2018-02-22T09:10:57.877Z,7.30
2018-02-22T09:13:40.960Z,7.30
2018-02-22T09:16:24.879Z,7.50
2018-02-22T09:19:09.094Z,7.00
2018-02-22T09:21:49.528Z,7.00
2018-02-22T09:24:32.695Z,7.80
2018-02-22T09:27:10.585Z,8.40
2018-02-22T09:29:47.755Z,8.10
2018-02-22T09:32:28.336Z,8.00
2018-02-22T09:35:11.064Z,8.40
2018-02-22T09:37:52.417Z,8.40
2018-02-22T09:40:30.191Z,7.50
2018-02-22T09:43:09.238Z,7.00
2018-02-22T09:45:48.127Z,7.70
2018-02-22T09:48:26.625Z,8.10
2018-02-22T09:51:06.133Z,8.60
2018-02-22T09:53:49.823Z,9.10
2018-02-22T09:56:31.953Z,8.60
2018-02-22T09:59:09.288Z,7.50
2018-02-22T10:01:48.815Z,8.40
2018-02-22T10:04:29.120Z,8.70
2018-02-22T10:07:06.077Z,8.60
2018-02-22T10:09:46.220Z,8.60
2018-02-22T10:12:27.717Z,8.60
2018-02-22T10:15:09.167Z,8.60
2018-02-22T10:17:47.861Z,7.80
2018-02-22T10:20:26.631Z,8.00
2018-02-22T10:23:07.704Z,8.80
2018-02-22T10:25:52.053Z,9.20
2018-02-22T10:28:34.233Z,9.10
2018-02-22T10:31:14.461Z,8.90
2018-02-22T10:34:00.095Z,7.90
2018-02-22T10:36:33.507Z,8.30
2018-02-22T10:39:24.432Z,9.40
2018-02-22T10:42:04.244Z,9.50
2018-02-22T10:44:43.624Z,9.30
2018-02-22T10:47:23.045Z,9.30
2018-02-22T10:50:01.754Z,8.20
2018-02-22T10:52:35.818Z,10.00
2018-02-22T10:55:14.405Z,10.00
2018-02-22T10:57:54.746Z,11.30
2018-02-22T11:00:36.877Z,11.20
2018-02-22T11:03:10.215Z,11.10
2018-02-22T11:05:47.808Z,11.40
2018-02-22T11:08:31.476Z,11.30
2018-02-22T11:11:08.892Z,11.30
2018-02-22T11:13:46.467Z,11.70
2018-02-22T11:16:27.890Z,9.10
2018-02-22T11:19:01.732Z,8.70
2018-02-22T11:21:41.320Z,10.20
2018-02-22T11:24:20.152Z,10.10
2018-02-22T11:26:57.901Z,10.00
2018-02-22T11:29:35.572Z,8.10
2018-02-22T11:32:17.003Z,8.10
2018-02-22T11:34:55.572Z,7.90
2018-02-22T11:37:38.188Z,8.40
2018-02-22T11:40:20.137Z,7.40
2018-02-22T11:43:02.295Z,7.40
2018-02-22T11:45:37.729Z,8.50
2018-02-22T11:48:14.821Z,9.40
2018-02-22T11:50:56.076Z,8.50
2018-02-22T11:53:37.652Z,8.50
2018-02-22T11:56:17.378Z,8.50
2018-02-22T11:59:00.511Z,9.30
2018-02-22T12:01:40.229Z,10.10
2018-02-22T12:04:19.375Z,10.70
2018-02-22T12:06:57.502Z,10.00
2018-02-22T12:09:39.785Z,9.80
2018-02-22T12:12:15.948Z,10.30
2018-02-22T12:14:54.067Z,9.40
2018-02-22T12:17:34.414Z,8.60
2018-02-22T12:20:11.468Z,9.30
2018-02-22T12:22:46.348Z,8.50
2018-02-22T12:25:27.559Z,8.50
2018-02-22T12:28:06.282Z,9.00
2018-02-22T12:30:46.377Z,9.00
2018-02-22T12:33:27.374Z,8.40
2018-02-22T12:36:12.841Z,8.30
2018-02-22T12:38:54.572Z,8.70
2018-02-22T12:41:36.736Z,8.10
2018-02-22T12:44:19.483Z,8.40
2018-02-22T12:46:58.539Z,8.60
2018-02-22T12:49:34.874Z,7.80
2018-02-22T12:52:10.682Z,7.70
2018-02-22T12:54:53.103Z,8.00
2018-02-22T12:57:36.679Z,8.10
2018-02-22T13:00:21.186Z,6.90
2018-02-22T13:03:03.061Z,7.80
2018-02-22T13:05:46.053Z,7.20
2018-02-22T13:08:26.897Z,7.20
2018-02-22T13:11:00.936Z,8.10
2018-02-22T13:13:35.371Z,7.60
2018-02-22T13:16:15.361Z,8.40
2018-02-22T13:19:01.095Z,8.40
2018-02-22T13:21:45.856Z,8.40
2018-02-22T13:24:27.728Z,8.40
2018-02-22T13:27:12.725Z,8.70
2018-02-22T13:29:57.547Z,8.40
2018-02-22T13:32:41.438Z,8.30
2018-02-22T13:35:15.972Z,8.20
2018-02-22T13:38:00.941Z,8.00
2018-02-22T13:40:43.505Z,8.00
2018-02-22T13:43:27.995Z,7.90
2018-02-22T13:46:11.641Z,8.20
2018-02-22T13:49:00.663Z,8.20
2018-02-22T13:51:46.476Z,8.10
2018-02-22T13:54:31.513Z,7.50
2018-02-22T13:57:20.063Z,7.50
2018-02-22T14:00:01.052Z,6.80
2018-02-22T14:02:35.566Z,7.10
2018-02-22T14:05:13.371Z,7.10
2018-02-22T14:07:50.767Z,7.50
2018-02-22T14:10:24.985Z,7.30
2018-02-22T14:13:05.634Z,6.60
2018-02-22T14:15:48.895Z,6.50
2018-02-22T14:18:31.447Z,7.20
2018-02-22T14:21:10.177Z,7.20
2018-02-22T14:23:46.747Z,6.70
2018-02-22T14:26:25.369Z,6.40
2018-02-22T14:29:07.677Z,6.50
2018-02-22T14:31:41.519Z,6.70
2018-02-22T14:34:21.711Z,7.80
2018-02-22T14:37:03.642Z,7.80
2018-02-22T14:39:41.213Z,7.80
2018-02-22T14:42:22.587Z,7.20
2018-02-22T14:45:00.016Z,6.90
2018-02-22T14:47:45.197Z,7.60
2018-02-22T14:50:25.759Z,7.60
2018-02-22T14:53:00.266Z,7.50
2018-02-22T14:55:40.469Z,7.20
2018-02-22T14:58:20.070Z,8.20
2018-02-22T15:01:02.865Z,8.20
2018-02-22T15:03:42.772Z,9.00
2018-02-22T15:06:17.912Z,8.40
2018-02-22T15:08:59.500Z,8.40
2018-02-22T15:11:42.404Z,8.60
2018-02-22T15:14:16.651Z,9.00
2018-02-22T15:16:55.908Z,9.00
2018-02-22T15:19:38.469Z,8.70
2018-02-22T15:22:22.324Z,8.10
2018-02-22T15:24:57.863Z,6.60
2018-02-22T15:27:40.632Z,5.30
2018-02-22T15:30:25.505Z,5.20
2018-02-22T15:33:10.206Z,5.00
2018-02-22T15:35:46.675Z,4.80
2018-02-22T15:38:25.311Z,4.90
2018-02-22T15:41:04.295Z,5.00
2018-02-22T15:43:45.574Z,5.00
2018-02-22T15:46:21.522Z,4.70
2018-02-22T15:49:01.580Z,4.60
2018-02-22T15:51:42.715Z,4.70
2018-02-22T15:54:21.508Z,4.60
2018-02-22T15:57:05.967Z,4.30
2018-02-22T15:59:50.098Z,4.30
2018-02-22T16:02:34.590Z,4.30
2018-02-22T16:05:20.415Z,4.30
2018-02-22T16:08:03.393Z,4.40
2018-02-22T16:10:42.069Z,4.40
2018-02-22T16:13:24.386Z,4.30
2018-02-22T16:16:01.491Z,4.20
2018-02-22T16:18:40.320Z,4.20
2018-02-22T16:21:18.672Z,4.10
2018-02-22T16:23:55.569Z,4.00
2018-02-22T16:26:37.886Z,3.90
2018-02-22T16:29:12.570Z,3.90
2018-02-22T16:31:48.947Z,3.90
2018-02-22T16:34:34.091Z,3.90
2018-02-22T16:37:14.633Z,3.90
2018-02-22T16:39:56.156Z,3.80
2018-02-22T16:42:38.312Z,3.70
2018-02-22T16:45:13.910Z,3.50
2018-02-22T16:47:51.412Z,3.50
2018-02-22T16:50:34.735Z,3.50
2018-02-22T16:53:17.960Z,3.40
2018-02-22T16:56:03.435Z,3.50
2018-02-22T16:58:45.650Z,3.40
2018-02-22T17:01:27.777Z,3.30
2018-02-22T17:04:11.339Z,3.20
2018-02-22T17:06:51.199Z,3.30
2018-02-22T17:09:29.593Z,3.20
2018-02-22T17:12:09.792Z,3.10
2018-02-22T17:14:54.478Z,2.90
2018-02-22T17:17:41.221Z,2.80
2018-02-22T17:20:15.221Z,2.80
2018-02-22T17:22:55.653Z,2.80
2018-02-22T17:25:36.088Z,2.70
2018-02-22T17:28:13.174Z,2.80
2018-02-22T17:30:55.187Z,2.70
2018-02-22T17:33:39.275Z,2.70
2018-02-22T17:36:20.851Z,2.60
2018-02-22T17:39:03.337Z,2.60
2018-02-22T17:41:41.078Z,2.60
2018-02-22T17:44:25.527Z,2.50
2018-02-22T17:47:08.040Z,2.40
2018-02-22T17:49:41.971Z,2.40
2018-02-22T17:52:19.609Z,2.30
2018-02-22T17:54:58.916Z,2.30
2018-02-22T17:57:32.886Z,2.30
2018-02-22T18:00:09.143Z,2.20
2018-02-22T18:02:52.077Z,2.20
2018-02-22T18:05:30.752Z,2.20
2018-02-22T18:08:09.396Z,2.20
2018-02-22T18:10:44.791Z,2.10
2018-02-22T18:13:23.667Z,2.10
2018-02-22T18:16:03.196Z,2.00
2018-02-22T18:18:46.609Z,2.00
2018-02-22T18:21:28.262Z,2.00
2018-02-22T18:24:02.946Z,2.00
2018-02-22T18:26:45.539Z,1.90
2018-02-22T18:29:25.959Z,1.90
2018-02-22T18:32:07.674Z,1.90
2018-02-22T18:34:48.738Z,1.80
2018-02-22T18:37:26.688Z,1.80
2018-02-22T18:40:05.101Z,1.80
2018-02-22T18:42:48.566Z,1.70
2018-02-22T18:45:28.643Z,1.70
2018-02-22T18:48:01.381Z,1.70
2018-02-22T18:50:42.079Z,1.70
2018-02-22T18:53:20.456Z,1.60
2018-02-22T18:56:06.743Z,1.50
2018-02-22T18:58:46.005Z,1.50
2018-02-22T19:01:25.878Z,1.50
2018-02-22T19:04:07.930Z,1.50
2018-02-22T19:06:47.342Z,1.40
2018-02-22T19:09:25.185Z,1.40
2018-02-22T19:12:03.684Z,1.40
2018-02-22T19:14:46.571Z,1.40
2018-02-22T19:17:29.118Z,1.40
2018-02-22T19:20:03.808Z,1.30
2018-02-22T19:22:43.030Z,1.30
2018-02-22T19:25:22.248Z,1.30
2018-02-22T19:28:04.939Z,1.30
2018-02-22T19:30:48.496Z,1.10
2018-02-22T19:33:26.328Z,1.10
2018-02-22T19:36:07.900Z,1.10
2018-02-22T19:38:46.474Z,1.10
2018-02-22T19:41:28.239Z,1.10
2018-02-22T19:44:03.294Z,1.00
2018-02-22T19:46:43.664Z,1.00
2018-02-22T19:49:21.649Z,1.00
2018-02-22T19:51:58.258Z,1.00
2018-02-22T19:54:38.100Z,0.90
2018-02-22T19:57:15.820Z,1.00
2018-02-22T19:59:49.989Z,0.90
2018-02-22T20:02:31.128Z,0.90
2018-02-22T20:05:10.873Z,0.90
2018-02-22T20:07:51.261Z,0.80
2018-02-22T20:10:31.776Z,0.80
2018-02-22T20:13:11.481Z,0.80
2018-02-22T20:15:54.714Z,0.80
2018-02-22T20:18:28.936Z,0.80
2018-02-22T20:21:10.165Z,0.70
2018-02-22T20:23:45.495Z,0.70
2018-02-22T20:26:23.732Z,0.70
2018-02-22T20:29:09.221Z,0.70
2018-02-22T20:31:50.651Z,0.60
2018-02-22T20:34:26.940Z,0.70
2018-02-22T20:37:05.390Z,0.60
2018-02-22T20:39:46.773Z,0.60
2018-02-22T20:42:26.577Z,0.50
2018-02-22T20:45:05.326Z,0.50
2018-02-22T20:47:44.378Z,0.50
2018-02-22T20:50:22.412Z,0.50
2018-02-22T20:53:04.846Z,0.40
2018-02-22T20:55:47.109Z,0.50
2018-02-22T20:58:28.856Z,0.40
2018-02-22T21:01:09.011Z,0.40
2018-02-22T21:03:44.867Z,0.40
2018-02-22T21:06:27.231Z,0.40
2018-02-22T21:09:10.220Z,0.30
2018-02-22T21:11:47.783Z,0.30
2018-02-22T21:14:25.539Z,0.30
2018-02-22T21:17:05.207Z,0.30
2018-02-22T21:19:43.484Z,0.20
2018-02-22T21:22:20.016Z,0.20
2018-02-22T21:24:53.662Z,0.20
2018-02-22T21:27:33.078Z,0.20
2018-02-22T21:30:16.667Z,0.20
2018-02-22T21:32:58.046Z,0.10
2018-02-22T21:35:36.844Z,0.10
2018-02-22T21:38:17.937Z,0.10
2018-02-22T21:40:59.540Z,0.10
2018-02-22T21:43:41.743Z,0.10
2018-02-22T21:46:19.804Z,0.10
2018-02-22T21:48:58.998Z,0.10
2018-02-22T21:51:38.029Z,0.10
2018-02-22T21:54:18.467Z,0.10
2018-02-22T21:56:58.051Z,0.10
2018-02-22T21:59:32.136Z,0.10
2018-02-22T22:02:11.688Z,0.10
2018-02-22T22:04:52.261Z,0.10
2018-02-22T22:07:31.363Z,0.00
2018-02-22T22:10:11.819Z,0.00
2018-02-22T22:12:49.418Z,0.00
2018-02-22T22:15:28.353Z,0.00
2018-02-22T22:18:08.477Z,0.00
2018-02-22T22:20:45.818Z,0.00
2018-02-22T22:23:24.738Z,0.00
2018-02-22T22:26:09.108Z,0.00
2018-02-22T22:28:52.287Z,0.00
2018-02-22T22:31:25.844Z,0.00
2018-02-22T22:34:05.654Z,0.00
2018-02-22T22:36:44.833Z,-0.10
2018-02-22T22:39:23.003Z,-0.10
2018-02-22T22:41:56.716Z,-0.10
2018-02-22T22:44:37.268Z,-0.20
2018-02-22T22:47:19.027Z,-0.20
2018-02-22T22:49:59.872Z,-0.20
2018-02-22T22:52:42.253Z,-0.20
2018-02-22T22:55:21.696Z,-0.20
2018-02-22T22:58:00.094Z,-0.20
2018-02-22T23:00:38.056Z,-0.20
2018-02-22T23:03:23.436Z,-0.30
2018-02-22T23:06:09.554Z,-0.20
2018-02-22T23:08:51.998Z,-0.30
2018-02-22T23:11:34.396Z,-0.30
2018-02-22T23:14:15.590Z,-0.30
2018-02-22T23:16:56.823Z,-0.30
2018-02-22T23:19:40.458Z,-0.30
2018-02-22T23:22:23.158Z,-0.30
2018-02-22T23:24:58.775Z,-0.40
2018-02-22T23:30:27.786Z,-0.30
2018-02-22T23:33:07.052Z,-0.40
2018-02-22T23:35:47.052Z,-0.40
2018-02-22T23:38:25.409Z,-0.40
2018-02-22T23:41:09.445Z,-0.50
2018-02-22T23:43:49.045Z,-0.50
2018-02-22T23:46:27.791Z,-0.50
2018-02-22T23:49:05.141Z,-0.50
2018-02-22T23:51:47.222Z,-0.50
2018-02-22T23:54:27.179Z,-0.50
2018-02-22T23:57:07.668Z,-0.60
2018-02-22T23:59:47.189Z,-0.60
